createdAt,value
2022-11-29T00:01:28.301Z,29.52
2022-11-29T00:11:54.590Z,19.33
2022-11-29T00:21:56.958Z,13.77
2022-11-29T00:31:59.951Z,21.23
2022-11-29T00:42:02.231Z,18.05
2022-11-29T00:52:04.736Z,23.35
2022-11-29T01:02:07.057Z,15.60
2022-11-29T01:12:09.359Z,14.60
2022-11-29T01:22:13.723Z,15.70
2022-11-29T01:32:15.894Z,17.13
2022-11-29T01:42:18.126Z,17.05
2022-11-29T01:52:27.665Z,21.25
2022-11-29T02:02:43.502Z,15.50
2022-11-29T02:13:03.888Z,16.38
2022-11-29T02:23:39.581Z,12.85
2022-11-29T02:34:11.041Z,11.98
2022-11-29T02:44:35.041Z,11.40
2022-11-29T02:54:47.936Z,13.70
2022-11-29T03:05:12.709Z,16.20
2022-11-29T03:15:33.121Z,12.68
2022-11-29T03:25:53.700Z,14.18
2022-11-29T03:36:16.427Z,13.05
2022-11-29T03:46:44.104Z,14.90
2022-11-29T03:56:46.636Z,11.53
2022-11-29T04:07:01.785Z,14.68
2022-11-29T04:17:51.523Z,15.18
2022-11-29T04:28:17.752Z,14.43
2022-11-29T04:38:47.171Z,13.55
2022-11-29T04:49:01.328Z,12.18
2022-11-29T04:59:12.979Z,10.00
2022-11-29T05:09:36.647Z,11.18
2022-11-29T05:19:46.782Z,12.90
2022-11-29T05:30:04.533Z,14.85
2022-11-29T05:40:28.174Z,13.30
2022-11-29T05:50:54.564Z,13.27
2022-11-29T06:01:35.088Z,15.20
2022-11-29T06:11:50.724Z,19.65
2022-11-29T06:22:26.712Z,14.68
2022-11-29T06:32:54.486Z,24.73
2022-11-29T06:42:56.690Z,25.50
2022-11-29T06:53:07.658Z,31.40
2022-11-29T07:03:31.140Z,21.73
2022-11-29T07:13:33.529Z,19.30
2022-11-29T07:24:24.417Z,12.18
2022-11-29T07:34:58.442Z,14.57
2022-11-29T07:45:29.756Z,18.08
2022-11-29T07:55:34.512Z,28.85
2022-11-29T08:05:38.406Z,58.10
2022-11-29T08:15:45.606Z,47.50
2022-11-29T08:25:48.634Z,44.10
2022-11-29T08:35:50.838Z,60.63
2022-11-29T08:45:53.417Z,57.28
2022-11-29T08:55:59.476Z,44.03
2022-11-29T09:06:13.010Z,48.35
2022-11-29T09:16:20.819Z,50.92
2022-11-29T09:26:23.152Z,45.20
2022-11-29T09:36:28.749Z,44.95
2022-11-29T09:46:58.539Z,51.20
2022-11-29T09:57:10.169Z,35.85
2022-11-29T10:07:24.500Z,39.10
2022-11-29T10:17:43.500Z,27.83
2022-11-29T10:27:45.963Z,50.70
2022-11-29T10:38:28.624Z,38.15
2022-11-29T10:48:17.866Z,33.30
2022-11-29T10:58:28.412Z,43.45
2022-11-29T11:08:32.616Z,28.77
2022-11-29T11:18:35.391Z,75.15
2022-11-29T11:29:01.935Z,96.00
2022-11-29T11:39:13.510Z,29.30
2022-11-29T11:49:29.927Z,27.48
2022-11-29T11:59:32.191Z,28.52
2022-11-29T12:09:40.670Z,31.60
2022-11-29T12:29:53.067Z,50.22
2022-11-29T12:40:05.381Z,74.85
2022-11-29T12:50:40.355Z,30.30
2022-11-29T13:00:56.394Z,62.08
2022-11-29T13:11:14.626Z,37.65
2022-11-29T13:21:22.639Z,24.40
2022-11-29T13:31:25.845Z,103.83
2022-11-29T13:41:28.162Z,75.88
2022-11-29T13:51:35.552Z,41.10
2022-11-29T14:01:47.081Z,55.60
2022-11-29T14:12:19.758Z,52.65
2022-11-29T14:22:22.452Z,80.75
2022-11-29T14:32:45.992Z,53.40
2022-11-29T14:42:50.229Z,42.22
2022-11-29T14:52:52.756Z,38.70
2022-11-29T15:03:21.361Z,45.00
2022-11-29T15:13:28.177Z,37.80
2022-11-29T15:23:40.625Z,38.88
2022-11-29T15:33:46.050Z,27.80
2022-11-29T15:43:54.518Z,28.17
2022-11-29T15:54:13.230Z,25.15
2022-11-29T16:04:20.404Z,19.33
2022-11-29T16:14:28.469Z,16.10
2022-11-29T16:24:33.990Z,21.05
2022-11-29T16:34:36.175Z,23.00
2022-11-29T16:44:41.591Z,20.98
2022-11-29T16:54:44.139Z,18.88
2022-11-29T17:04:46.967Z,20.50
2022-11-29T17:14:49.409Z,20.77
2022-11-29T17:24:51.960Z,24.73
2022-11-29T17:34:54.435Z,30.60
2022-11-29T17:44:56.611Z,27.05
2022-11-29T17:54:59.104Z,26.95
2022-11-29T18:05:01.338Z,28.65
2022-11-29T18:15:03.679Z,26.05
2022-11-29T18:25:37.078Z,30.10
2022-11-29T18:35:28.507Z,29.98
2022-11-29T18:45:30.706Z,25.30
2022-11-29T18:55:33.317Z,26.00
2022-11-29T19:05:35.482Z,23.63
2022-11-29T19:15:37.679Z,27.65
2022-11-29T19:25:40.053Z,35.33
2022-11-29T19:35:42.220Z,26.02
2022-11-29T19:45:44.526Z,22.40
2022-11-29T19:55:46.797Z,30.45
2022-11-29T20:05:55.843Z,26.90
2022-11-29T20:16:03.477Z,29.88
2022-11-29T20:26:08.213Z,31.60
2022-11-29T20:36:30.415Z,35.05
2022-11-29T20:46:32.810Z,45.47
2022-11-29T20:56:35.009Z,47.50
2022-11-29T21:06:38.167Z,56.72
2022-11-29T21:16:40.632Z,81.03
2022-11-29T21:26:50.928Z,94.05
2022-11-29T21:40:13.079Z,101.35
2022-11-29T21:50:15.415Z,102.07
2022-11-29T22:00:18.103Z,101.22
2022-11-29T22:10:20.272Z,68.53
2022-11-29T22:20:22.675Z,98.07
2022-11-29T22:30:24.884Z,105.28
2022-11-29T22:40:27.044Z,76.85
2022-11-29T22:50:29.223Z,44.90
2022-11-29T23:00:32.216Z,48.22
2022-11-29T23:10:34.444Z,40.50
2022-11-29T23:20:37.592Z,30.92
2022-11-29T23:30:39.737Z,36.22
2022-11-29T23:40:43.812Z,24.30
2022-11-29T23:50:46.695Z,22.88
